Time;durP1;ratioP1;P1;durP2;ratioP2;P2;SDS_P1;SDS_P2;PMS_P1;PMS_P2;Temp;Humidity;BMP_temperature;BMP_pressure;BME280_temperature;BME280_humidity;BME280_pressure;Samples;Min_cycle;Max_cycle;Signal;HPM_P1;HPM_P2
2023/07/14 00:00:21;;;;;;;17.73;11.20;;;;;;;;;;5049337;28;20063;-73
2023/07/14 00:02:48;;;;;;;13.93;10.93;;;;;;;;;;5061407;28;20028;-74
2023/07/14 00:05:14;;;;;;;13.63;11.52;;;;;;;;;;5049598;28;20032;-76
2023/07/14 00:07:40;;;;;;;14.45;11.43;;;;;;;;;;5049540;28;20539;-74
2023/07/14 00:10:14;;;;;;;12.85;11.02;;;;;;;;;;5057754;28;20111;-76
2023/07/14 00:12:39;;;;;;;14.13;11.45;;;;;;;;;;5054216;28;20035;-74
2023/07/14 00:15:05;;;;;;;15.82;11.60;;;;;;;;;;5048237;28;20025;-74
2023/07/14 00:17:30;;;;;;;14.82;11.30;;;;;;;;;;5048187;28;20067;-74
2023/07/14 00:19:55;;;;;;;15.23;11.07;;;;;;;;;;5057420;28;20480;-74
2023/07/14 00:22:21;;;;;;;13.73;11.45;;;;;;;;;;5057521;28;20040;-74
2023/07/14 00:24:46;;;;;;;14.45;10.80;;;;;;;;;;5053228;28;20361;-75
2023/07/14 00:27:17;;;;;;;14.05;10.63;;;;;;;;;;5070294;28;20037;-75
2023/07/14 00:29:43;;;;;;;14.60;11.13;;;;;;;;;;5051883;28;20025;-75
2023/07/14 00:32:19;;;;;;;14.20;10.35;;;;;;;;;;5052605;28;20040;-74
2023/07/14 00:34:45;;;;;;;14.05;10.80;;;;;;;;;;5049823;28;20028;-74
2023/07/14 00:37:11;;;;;;;14.00;9.50;;;;;;;;;;5057453;28;20646;-74
2023/07/14 00:39:36;;;;;;;14.82;10.60;;;;;;;;;;5054146;28;20028;-75
2023/07/14 00:42:03;;;;;;;12.85;11.55;;;;;;;;;;5051069;28;20052;-75
2023/07/14 00:44:29;;;;;;;13.40;10.75;;;;;;;;;;5046272;28;20380;-74
2023/07/14 00:46:55;;;;;;;13.48;10.88;;;;;;;;;;5047673;28;20021;-74
2023/07/14 00:49:34;;;;;;;20.23;11.55;;;;;;;;;;5056972;28;20477;-74
2023/07/14 00:52:03;;;;;;;15.48;11.02;;;;;;;;;;5071817;28;20040;-74
2023/07/14 00:54:29;;;;;;;13.35;10.25;;;;;;;;;;5056532;28;20356;-74
2023/07/14 00:56:55;;;;;;;14.55;10.75;;;;;;;;;;5053291;28;20071;-75
2023/07/14 00:59:25;;;;;;;16.73;11.75;;;;;;;;;;5048073;28;20086;-74
2023/07/14 01:02:09;;;;;;;15.88;11.95;;;;;;;;;;5048374;28;20127;-75
2023/07/14 01:04:34;;;;;;;16.52;11.77;;;;;;;;;;5055745;28;20032;-77
2023/07/14 01:07:00;;;;;;;15.40;10.95;;;;;;;;;;5057926;28;20047;-73
2023/07/14 01:09:25;;;;;;;14.32;11.43;;;;;;;;;;5050493;28;20028;-74
2023/07/14 01:11:53;;;;;;;18.73;12.10;;;;;;;;;;5050137;28;20098;-74
2023/07/14 01:14:24;;;;;;;14.77;10.80;;;;;;;;;;5058499;28;20027;-75
2023/07/14 01:16:51;;;;;;;15.75;10.90;;;;;;;;;;5073930;28;20036;-74
2023/07/14 01:19:26;;;;;;;11.65;10.40;;;;;;;;;;5047721;28;20021;-74
2023/07/14 01:21:54;;;;;;;14.05;11.10;;;;;;;;;;5047434;28;20035;-74
2023/07/14 01:24:24;;;;;;;13.25;11.05;;;;;;;;;;5050814;28;20033;-76
2023/07/14 01:26:56;;;;;;;15.63;11.52;;;;;;;;;;5055422;28;20111;-75
2023/07/14 01:29:21;;;;;;;14.25;11.73;;;;;;;;;;5057515;28;20561;-75
2023/07/14 01:31:47;;;;;;;14.63;11.27;;;;;;;;;;5058089;28;20040;-75
2023/07/14 01:34:13;;;;;;;14.98;10.65;;;;;;;;;;5057541;28;20029;-75
2023/07/14 01:36:39;;;;;;;15.80;11.18;;;;;;;;;;5049621;28;20050;-77
2023/07/14 01:39:05;;;;;;;14.82;10.77;;;;;;;;;;5053834;28;20028;-78
2023/07/14 01:41:31;;;;;;;13.30;11.15;;;;;;;;;;5045063;28;20028;-74
2023/07/14 01:43:59;;;;;;;15.50;11.75;;;;;;;;;;5049939;28;20028;-75
2023/07/14 01:46:25;;;;;;;15.70;12.73;;;;;;;;;;5057284;28;20033;-75
2023/07/14 01:48:56;;;;;;;22.48;12.82;;;;;;;;;;5046530;28;20035;-75
2023/07/14 01:51:22;;;;;;;14.60;11.15;;;;;;;;;;5046912;28;20094;-74
2023/07/14 01:54:14;;;;;;;16.05;12.10;;;;;;;;;;5054708;28;20020;-75
2023/07/14 01:56:41;;;;;;;18.60;12.88;;;;;;;;;;5058810;28;20351;-75
2023/07/14 01:59:10;;;;;;;18.10;12.70;;;;;;;;;;5054067;28;20033;-75
2023/07/14 02:01:36;;;;;;;21.27;12.55;;;;;;;;;;5051025;28;20028;-74
2023/07/14 02:04:06;;;;;;;17.23;13.15;;;;;;;;;;5053264;28;20402;-75
2023/07/14 02:06:32;;;;;;;16.17;11.95;;;;;;;;;;5049204;28;20017;-74
2023/07/14 02:08:58;;;;;;;15.63;12.20;;;;;;;;;;5049133;28;20048;-73
2023/07/14 02:11:24;;;;;;;20.77;12.95;;;;;;;;;;5048967;28;20345;-74
2023/07/14 02:13:54;;;;;;;17.58;11.85;;;;;;;;;;5047274;28;20413;-74
2023/07/14 02:16:20;;;;;;;15.35;12.57;;;;;;;;;;5057813;28;20032;-74
2023/07/14 02:18:46;;;;;;;16.85;12.10;;;;;;;;;;5056960;28;20020;-73
2023/07/14 02:21:13;;;;;;;16.13;12.90;;;;;;;;;;5057279;28;20032;-74
2023/07/14 02:23:40;;;;;;;18.95;11.82;;;;;;;;;;5057661;28;20086;-74
2023/07/14 02:26:07;;;;;;;14.85;12.98;;;;;;;;;;5057046;28;20518;-74
2023/07/14 02:28:33;;;;;;;15.70;12.35;;;;;;;;;;5057555;28;20032;-74
2023/07/14 02:31:02;;;;;;;16.05;12.75;;;;;;;;;;5068919;28;20028;-74
2023/07/14 02:33:31;;;;;;;14.07;10.88;;;;;;;;;;5059207;28;20044;-74
2023/07/14 02:36:02;;;;;;;14.02;10.82;;;;;;;;;;5055829;28;20087;-76
2023/07/14 02:38:28;;;;;;;14.43;10.35;;;;;;;;;;5059912;28;20444;-73
2023/07/14 02:40:56;;;;;;;11.77;10.52;;;;;;;;;;5051112;28;20051;-75
2023/07/14 02:43:23;;;;;;;12.88;10.40;;;;;;;;;;5061321;28;20032;-74
2023/07/14 02:45:51;;;;;;;14.50;10.38;;;;;;;;;;5053676;28;20043;-74
2023/07/14 02:48:18;;;;;;;14.10;9.50;;;;;;;;;;5061174;28;20032;-73
2023/07/14 02:50:44;;;;;;;12.25;9.68;;;;;;;;;;5057123;28;20253;-73
2023/07/14 02:53:10;;;;;;;16.35;9.70;;;;;;;;;;5056558;28;20039;-75
2023/07/14 02:55:36;;;;;;;12.05;9.80;;;;;;;;;;5056086;28;20024;-74
2023/07/14 02:58:03;;;;;;;13.85;8.95;;;;;;;;;;5055590;28;20035;-74
2023/07/14 03:00:28;;;;;;;13.40;9.88;;;;;;;;;;5059382;28;20089;-74
2023/07/14 03:02:54;;;;;;;10.60;9.02;;;;;;;;;;5068172;28;20037;-73
2023/07/14 03:05:19;;;;;;;11.88;9.38;;;;;;;;;;5056169;28;20037;-75
2023/07/14 03:07:44;;;;;;;12.10;8.40;;;;;;;;;;5057024;28;20070;-74
2023/07/14 03:10:10;;;;;;;9.55;8.30;;;;;;;;;;5059437;28;20020;-76
2023/07/14 03:12:35;;;;;;;9.73;8.57;;;;;;;;;;5055776;28;20085;-74
2023/07/14 03:15:01;;;;;;;10.65;7.35;;;;;;;;;;5046090;28;20031;-74
2023/07/14 03:17:26;;;;;;;12.00;8.18;;;;;;;;;;5046546;28;20032;-74
2023/07/14 03:19:51;;;;;;;9.20;7.22;;;;;;;;;;5047424;28;20021;-73
2023/07/14 03:22:17;;;;;;;11.45;7.55;;;;;;;;;;5048415;28;20109;-74
2023/07/14 03:24:42;;;;;;;9.02;8.15;;;;;;;;;;5059561;28;20379;-74
2023/07/14 03:27:07;;;;;;;12.18;8.13;;;;;;;;;;5061239;28;20024;-74
2023/07/14 03:29:33;;;;;;;10.02;7.60;;;;;;;;;;5058478;28;20117;-73
2023/07/14 03:31:58;;;;;;;11.23;7.50;;;;;;;;;;5054896;28;20067;-75
2023/07/14 03:34:23;;;;;;;13.10;7.85;;;;;;;;;;5047989;28;20028;-74
2023/07/14 03:36:49;;;;;;;10.63;8.23;;;;;;;;;;5051693;28;20025;-74
2023/07/14 03:39:23;;;;;;;11.07;8.38;;;;;;;;;;5047234;28;20052;-75
2023/07/14 03:41:48;;;;;;;9.50;8.38;;;;;;;;;;5052368;28;20051;-75
2023/07/14 03:44:14;;;;;;;12.65;8.10;;;;;;;;;;5048744;28;20036;-73
2023/07/14 03:46:39;;;;;;;9.27;8.30;;;;;;;;;;5048116;28;20087;-73
2023/07/14 03:49:04;;;;;;;10.93;7.93;;;;;;;;;;5049008;28;20115;-74
2023/07/14 03:51:30;;;;;;;9.38;7.05;;;;;;;;;;5056096;28;20048;-73
2023/07/14 03:53:55;;;;;;;11.02;7.15;;;;;;;;;;5056454;28;20967;-73
2023/07/14 03:56:21;;;;;;;10.32;7.70;;;;;;;;;;5057191;28;20025;-75
2023/07/14 03:58:46;;;;;;;10.68;6.90;;;;;;;;;;5057885;28;20016;-75
2023/07/14 04:01:13;;;;;;;9.93;6.70;;;;;;;;;;5055163;28;20040;-74
2023/07/14 04:03:39;;;;;;;12.10;7.25;;;;;;;;;;5057093;28;20012;-74
2023/07/14 04:06:05;;;;;;;10.30;7.18;;;;;;;;;;5056744;28;20025;-75
2023/07/14 04:08:40;;;;;;;9.63;6.95;;;;;;;;;;5058538;28;20106;-74
2023/07/14 04:11:06;;;;;;;10.05;7.05;;;;;;;;;;5056863;28;20032;-74
2023/07/14 04:13:32;;;;;;;13.25;7.82;;;;;;;;;;5056903;28;20032;-75
2023/07/14 04:15:58;;;;;;;11.25;7.57;;;;;;;;;;5056989;28;20036;-74
2023/07/14 04:18:23;;;;;;;13.70;7.70;;;;;;;;;;5056159;28;20032;-74
2023/07/14 04:20:49;;;;;;;11.82;7.93;;;;;;;;;;5059579;28;20039;-74
2023/07/14 04:23:14;;;;;;;9.60;7.53;;;;;;;;;;5074346;28;20077;-75
2023/07/14 04:25:40;;;;;;;9.55;6.53;;;;;;;;;;5059908;28;20024;-75
2023/07/14 04:28:05;;;;;;;9.05;6.65;;;;;;;;;;5056925;28;20056;-74
2023/07/14 04:30:31;;;;;;;10.57;7.30;;;;;;;;;;5055709;28;20036;-77
2023/07/14 04:32:57;;;;;;;11.05;6.93;;;;;;;;;;5059474;28;20044;-76
2023/07/14 04:35:23;;;;;;;13.35;6.53;;;;;;;;;;5058956;28;20115;-75
2023/07/14 04:37:48;;;;;;;9.73;7.45;;;;;;;;;;5059822;28;20119;-74
2023/07/14 04:40:14;;;;;;;11.73;7.20;;;;;;;;;;5059792;28;20033;-74
2023/07/14 04:42:39;;;;;;;10.95;7.00;;;;;;;;;;5056080;28;20085;-75
2023/07/14 04:45:05;;;;;;;12.48;7.50;;;;;;;;;;5054478;28;20439;-77
2023/07/14 04:47:30;;;;;;;13.23;7.97;;;;;;;;;;5057321;28;20047;-75
2023/07/14 04:49:56;;;;;;;14.75;8.10;;;;;;;;;;5052910;28;20032;-75
2023/07/14 04:52:21;;;;;;;14.23;7.53;;;;;;;;;;5047720;28;20046;-73
2023/07/14 04:54:47;;;;;;;12.93;7.53;;;;;;;;;;5048218;28;20112;-73
2023/07/14 04:57:12;;;;;;;10.98;7.35;;;;;;;;;;5048347;28;20487;-74
2023/07/14 04:59:38;;;;;;;11.20;6.93;;;;;;;;;;5050756;28;20052;-73
2023/07/14 05:02:05;;;;;;;10.27;7.20;;;;;;;;;;5056550;28;20020;-75
2023/07/14 05:04:31;;;;;;;10.25;7.05;;;;;;;;;;5050730;28;20396;-75
2023/07/14 05:06:56;;;;;;;9.63;6.57;;;;;;;;;;5045928;28;20131;-73
2023/07/14 05:09:22;;;;;;;10.30;6.53;;;;;;;;;;5048038;28;20056;-74
2023/07/14 05:11:47;;;;;;;13.27;7.15;;;;;;;;;;5046377;28;20106;-74
2023/07/14 05:14:13;;;;;;;12.68;6.47;;;;;;;;;;5048967;28;20039;-73
2023/07/14 05:16:38;;;;;;;9.02;7.03;;;;;;;;;;5047534;28;20182;-75
2023/07/14 05:19:03;;;;;;;9.65;6.13;;;;;;;;;;5046598;28;20031;-74
2023/07/14 05:21:29;;;;;;;8.43;6.22;;;;;;;;;;5046923;28;20047;-73
2023/07/14 05:23:54;;;;;;;10.88;6.10;;;;;;;;;;5047018;28;20058;-72
2023/07/14 05:26:20;;;;;;;10.68;6.70;;;;;;;;;;5046257;28;20024;-75
2023/07/14 05:28:45;;;;;;;8.95;7.10;;;;;;;;;;5045821;28;20078;-76
2023/07/14 05:31:12;;;;;;;7.22;6.03;;;;;;;;;;5045592;28;20024;-72
2023/07/14 05:33:37;;;;;;;12.70;6.88;;;;;;;;;;5044642;28;20329;-73
2023/07/14 05:36:03;;;;;;;8.93;6.40;;;;;;;;;;5046836;28;20063;-73
2023/07/14 05:38:29;;;;;;;12.05;6.80;;;;;;;;;;5047103;28;20033;-76
2023/07/14 05:40:55;;;;;;;10.50;6.88;;;;;;;;;;5046834;28;20028;-74
2023/07/14 05:43:20;;;;;;;12.65;7.10;;;;;;;;;;5062064;28;20652;-73
2023/07/14 05:45:47;;;;;;;18.20;7.97;;;;;;;;;;5047321;28;20444;-76
2023/07/14 05:48:14;;;;;;;10.43;7.38;;;;;;;;;;5046966;28;20060;-73
2023/07/14 05:50:39;;;;;;;9.88;7.30;;;;;;;;;;5045073;28;20037;-73
2023/07/14 05:53:05;;;;;;;8.65;5.53;;;;;;;;;;5046322;28;20051;-74
2023/07/14 05:55:31;;;;;;;7.03;5.30;;;;;;;;;;5046013;28;20110;-76
2023/07/14 05:57:56;;;;;;;8.10;5.03;;;;;;;;;;5047516;28;20028;-73
2023/07/14 06:00:21;;;;;;;6.53;4.40;;;;;;;;;;5045291;28;20060;-77
2023/07/14 06:02:50;;;;;;;9.23;4.70;;;;;;;;;;5045991;28;20037;-74
2023/07/14 06:05:17;;;;;;;9.97;5.03;;;;;;;;;;5045627;28;20033;-74
2023/07/14 06:07:42;;;;;;;9.23;5.10;;;;;;;;;;5044873;28;20113;-72
2023/07/14 06:10:08;;;;;;;7.03;4.93;;;;;;;;;;5045316;28;20432;-71
2023/07/14 06:12:34;;;;;;;6.10;5.10;;;;;;;;;;5045191;28;20435;-74
2023/07/14 06:14:59;;;;;;;8.32;5.40;;;;;;;;;;5045692;28;20035;-76
2023/07/14 06:17:25;;;;;;;8.70;5.32;;;;;;;;;;5046444;28;20110;-75
2023/07/14 06:19:50;;;;;;;8.80;5.07;;;;;;;;;;5044713;28;20118;-74
2023/07/14 06:22:16;;;;;;;7.45;5.55;;;;;;;;;;5045274;28;20438;-73
2023/07/14 06:24:41;;;;;;;5.50;5.00;;;;;;;;;;5045799;28;20032;-73
2023/07/14 06:27:06;;;;;;;9.77;5.20;;;;;;;;;;5051902;28;20033;-72
2023/07/14 06:29:33;;;;;;;10.57;5.45;;;;;;;;;;5058120;28;20027;-74
2023/07/14 06:31:58;;;;;;;6.70;5.32;;;;;;;;;;5053721;28;20032;-77
2023/07/14 06:34:24;;;;;;;8.75;5.32;;;;;;;;;;5054532;28;20325;-75
2023/07/14 06:36:49;;;;;;;8.93;5.20;;;;;;;;;;5058171;28;20104;-74
2023/07/14 06:39:14;;;;;;;7.90;5.07;;;;;;;;;;5057924;28;20040;-76
2023/07/14 06:41:40;;;;;;;8.52;5.53;;;;;;;;;;5052459;28;20111;-73
2023/07/14 06:44:06;;;;;;;11.07;5.65;;;;;;;;;;5051284;28;20039;-74
2023/07/14 06:46:31;;;;;;;10.73;5.55;;;;;;;;;;5059476;28;20412;-74
2023/07/14 06:48:57;;;;;;;9.32;5.72;;;;;;;;;;5059471;28;20038;-74
2023/07/14 06:51:23;;;;;;;8.93;5.50;;;;;;;;;;5057116;28;20155;-75
2023/07/14 06:53:49;;;;;;;7.88;5.70;;;;;;;;;;5058223;28;20016;-74
2023/07/14 06:56:15;;;;;;;8.88;5.65;;;;;;;;;;5062553;28;20029;-73
2023/07/14 06:58:41;;;;;;;9.13;6.07;;;;;;;;;;5060083;28;20094;-72
2023/07/14 07:01:06;;;;;;;8.45;5.60;;;;;;;;;;5061706;28;20020;-72
2023/07/14 07:03:31;;;;;;;10.07;6.22;;;;;;;;;;5061075;28;20047;-73
2023/07/14 07:05:57;;;;;;;12.55;6.40;;;;;;;;;;5060865;28;20073;-73
2023/07/14 07:08:23;;;;;;;8.55;6.05;;;;;;;;;;5058507;28;20159;-75
2023/07/14 07:10:48;;;;;;;10.38;7.07;;;;;;;;;;5058690;28;20028;-74
2023/07/14 07:13:14;;;;;;;9.02;7.28;;;;;;;;;;5059168;28;21022;-75
2023/07/14 07:15:40;;;;;;;10.48;7.43;;;;;;;;;;5058287;28;20032;-73
2023/07/14 07:18:06;;;;;;;7.93;6.47;;;;;;;;;;5060504;28;20083;-72
2023/07/14 07:20:31;;;;;;;7.97;5.93;;;;;;;;;;5058494;28;20024;-72
2023/07/14 07:22:57;;;;;;;9.30;6.03;;;;;;;;;;5060046;28;20039;-76
2023/07/14 07:25:22;;;;;;;13.70;6.25;;;;;;;;;;5059791;28;20115;-73
2023/07/14 07:27:48;;;;;;;7.13;6.38;;;;;;;;;;5058138;28;20124;-73
2023/07/14 07:30:14;;;;;;;11.75;6.32;;;;;;;;;;5061007;28;20146;-74
2023/07/14 07:32:41;;;;;;;9.15;6.13;;;;;;;;;;5060727;28;20036;-74
2023/07/14 07:35:07;;;;;;;12.27;7.00;;;;;;;;;;5058356;28;20027;-74
2023/07/14 07:37:33;;;;;;;8.35;5.78;;;;;;;;;;5055120;28;20095;-76
2023/07/14 07:39:59;;;;;;;7.00;5.65;;;;;;;;;;5048320;28;20106;-74
2023/07/14 07:42:24;;;;;;;10.35;5.95;;;;;;;;;;5047947;28;20039;-71
2023/07/14 07:44:50;;;;;;;10.27;4.95;;;;;;;;;;5049448;28;20024;-72
2023/07/14 07:47:15;;;;;;;7.10;5.75;;;;;;;;;;5048583;28;20021;-73
2023/07/14 07:49:41;;;;;;;7.43;4.70;;;;;;;;;;5047365;28;20496;-74
2023/07/14 07:52:07;;;;;;;6.05;5.20;;;;;;;;;;5048253;28;20046;-75
2023/07/14 07:54:32;;;;;;;8.20;5.72;;;;;;;;;;5046581;28;20031;-75
2023/07/14 07:56:57;;;;;;;7.50;4.68;;;;;;;;;;5049344;28;20040;-71
2023/07/14 07:59:23;;;;;;;10.25;5.10;;;;;;;;;;5047234;28;20028;-74
2023/07/14 08:01:48;;;;;;;10.40;5.95;;;;;;;;;;5047827;28;21162;-75
2023/07/14 08:04:14;;;;;;;8.05;5.47;;;;;;;;;;5046895;28;20085;-76
2023/07/14 08:06:39;;;;;;;9.02;5.07;;;;;;;;;;5047122;28;20029;-74
2023/07/14 08:09:05;;;;;;;8.40;5.65;;;;;;;;;;5049044;28;20048;-75
2023/07/14 08:11:30;;;;;;;8.38;5.78;;;;;;;;;;5047524;28;20032;-76
2023/07/14 08:13:59;;;;;;;12.32;5.85;;;;;;;;;;5049958;28;20035;-76
2023/07/14 08:16:24;;;;;;;6.30;5.70;;;;;;;;;;5048501;28;20120;-76
2023/07/14 08:18:50;;;;;;;7.90;5.60;;;;;;;;;;5048945;28;20124;-75
2023/07/14 08:21:16;;;;;;;6.10;4.97;;;;;;;;;;5049532;28;20436;-74
2023/07/14 08:23:41;;;;;;;6.03;5.20;;;;;;;;;;5046995;28;20098;-77
2023/07/14 08:26:06;;;;;;;9.95;5.60;;;;;;;;;;5047896;28;20043;-77
2023/07/14 08:28:32;;;;;;;6.30;5.28;;;;;;;;;;5047192;28;20519;-75
2023/07/14 08:31:00;;;;;;;9.15;5.18;;;;;;;;;;5054917;28;20108;-75
2023/07/14 08:33:25;;;;;;;7.60;4.93;;;;;;;;;;5061458;28;20105;-76
2023/07/14 08:35:52;;;;;;;7.25;5.10;;;;;;;;;;5061027;28;20419;-78
2023/07/14 08:38:17;;;;;;;9.15;4.82;;;;;;;;;;5061791;28;20101;-75
2023/07/14 08:40:47;;;;;;;5.35;4.35;;;;;;;;;;5062135;28;20032;-75
2023/07/14 08:43:12;;;;;;;9.70;4.78;;;;;;;;;;5062484;28;20048;-77
2023/07/14 08:45:41;;;;;;;7.93;4.78;;;;;;;;;;5061064;28;20032;-77
2023/07/14 08:48:06;;;;;;;;;;;;;;;;;;5061942;28;20432;-76
2023/07/14 08:50:34;;;;;;;6.50;4.13;;;;;;;;;;5061334;28;19926;-76
2023/07/14 08:53:04;;;;;;;5.32;4.68;;;;;;;;;;5060827;28;20068;-76
2023/07/14 08:55:31;;;;;;;10.00;4.50;;;;;;;;;;5060475;28;20033;-77
2023/07/14 08:57:56;;;;;;;9.25;4.80;;;;;;;;;;5053154;28;20093;-75
2023/07/14 09:00:28;;;;;;;8.38;4.38;;;;;;;;;;5054789;28;20046;-75
2023/07/14 09:03:06;;;;;;;12.27;5.15;;;;;;;;;;5056963;28;20029;-75
2023/07/14 09:05:31;;;;;;;11.32;4.75;;;;;;;;;;5061106;28;20104;-76
2023/07/14 09:07:56;;;;;;;5.90;4.07;;;;;;;;;;5058890;28;20127;-73
2023/07/14 09:10:26;;;;;;;14.55;4.90;;;;;;;;;;5059196;28;20029;-77
2023/07/14 09:12:55;;;;;;;8.70;4.50;;;;;;;;;;5058060;28;20025;-76
2023/07/14 09:15:23;;;;;;;7.47;4.25;;;;;;;;;;5059628;28;20439;-73
2023/07/14 09:17:54;;;;;;;9.13;4.20;;;;;;;;;;5058849;28;20329;-75
2023/07/14 09:20:35;;;;;;;6.55;4.35;;;;;;;;;;5057949;28;20035;-74
2023/07/14 09:23:03;;;;;;;8.05;5.15;;;;;;;;;;5056569;28;20047;-75
2023/07/14 09:25:48;;;;;;;8.80;4.70;;;;;;;;;;5057078;28;20028;-75
2023/07/14 09:28:33;;;;;;;6.30;4.22;;;;;;;;;;5057708;28;20123;-76
2023/07/14 09:31:00;;;;;;;9.23;4.68;;;;;;;;;;5056731;28;20020;-76
2023/07/14 09:33:26;;;;;;;8.77;4.75;;;;;;;;;;5057919;28;20494;-75
2023/07/14 09:35:51;;;;;;;8.70;4.57;;;;;;;;;;5061079;28;20021;-74
2023/07/14 09:38:37;;;;;;;5.03;4.50;;;;;;;;;;5048498;28;20044;-76
2023/07/14 09:41:02;;;;;;;7.05;4.80;;;;;;;;;;5057430;28;20430;-75
2023/07/14 09:43:28;;;;;;;7.15;4.07;;;;;;;;;;5055371;28;20020;-76
2023/07/14 09:45:54;;;;;;;7.07;4.25;;;;;;;;;;5060082;28;20395;-75
2023/07/14 09:48:22;;;;;;;9.20;4.88;;;;;;;;;;5058246;28;20025;-73
2023/07/14 09:51:02;;;;;;;8.20;4.53;;;;;;;;;;5059891;28;20463;-75
2023/07/14 09:53:28;;;;;;;5.65;4.32;;;;;;;;;;5061102;28;20094;-76
2023/07/14 09:55:58;;;;;;;8.23;4.65;;;;;;;;;;5055366;28;20029;-76
2023/07/14 09:58:26;;;;;;;10.25;4.43;;;;;;;;;;5060189;28;20074;-77
2023/07/14 10:00:53;;;;;;;6.80;4.32;;;;;;;;;;5059738;28;20128;-76
2023/07/14 10:03:19;;;;;;;8.48;4.55;;;;;;;;;;5060811;28;20051;-75
2023/07/14 10:05:51;;;;;;;5.38;4.55;;;;;;;;;;5059882;28;20068;-76
2023/07/14 10:08:45;;;;;;;6.60;4.30;;;;;;;;;;5060518;28;20060;-78
2023/07/14 10:11:17;;;;;;;7.85;4.70;;;;;;;;;;5055636;28;20036;-78
2023/07/14 10:13:44;;;;;;;8.90;4.35;;;;;;;;;;5062243;28;20048;-79
2023/07/14 10:16:15;;;;;;;7.90;4.32;;;;;;;;;;5061626;28;20028;-77
2023/07/14 10:18:46;;;;;;;7.13;4.45;;;;;;;;;;5063655;28;20036;-76
2023/07/14 10:21:13;;;;;;;7.07;4.15;;;;;;;;;;5063679;28;20132;-77
2023/07/14 10:23:38;;;;;;;5.32;3.90;;;;;;;;;;5063202;28;20017;-77
2023/07/14 10:26:06;;;;;;;4.82;3.67;;;;;;;;;;5063723;28;20103;-76
2023/07/14 10:28:33;;;;;;;11.65;4.28;;;;;;;;;;5063548;28;20028;-79
2023/07/14 10:31:01;;;;;;;7.43;4.38;;;;;;;;;;5063833;28;20416;-78
2023/07/14 10:33:38;;;;;;;6.78;4.38;;;;;;;;;;5064543;28;20340;-77
2023/07/14 10:36:08;;;;;;;7.15;4.28;;;;;;;;;;5064097;28;20108;-77
2023/07/14 10:38:36;;;;;;;7.65;4.20;;;;;;;;;;5062270;28;20032;-80
2023/07/14 10:41:02;;;;;;;6.30;4.03;;;;;;;;;;5061337;28;20107;-76
2023/07/14 10:43:28;;;;;;;4.20;3.80;;;;;;;;;;5065065;28;20059;-76
2023/07/14 10:45:56;;;;;;;4.53;3.40;;;;;;;;;;5063168;28;20464;-80
2023/07/14 10:48:26;;;;;;;7.45;4.18;;;;;;;;;;5062335;28;20336;-76
2023/07/14 10:50:54;;;;;;;8.02;4.05;;;;;;;;;;5063553;28;20453;-76
2023/07/14 10:53:24;;;;;;;7.00;3.70;;;;;;;;;;5064003;28;20032;-77
2023/07/14 10:55:52;;;;;;;5.38;3.70;;;;;;;;;;5064402;28;20044;-78
2023/07/14 10:58:37;;;;;;;4.50;4.10;;;;;;;;;;5057127;28;20117;-75
2023/07/14 11:01:05;;;;;;;4.18;3.20;;;;;;;;;;5056280;28;20413;-77
2023/07/14 11:03:53;;;;;;;5.30;3.65;;;;;;;;;;5064974;28;20043;-77
2023/07/14 11:06:22;;;;;;;6.07;3.65;;;;;;;;;;5061871;28;20451;-78
2023/07/14 11:08:50;;;;;;;4.50;3.25;;;;;;;;;;5063403;28;20061;-78
2023/07/14 11:11:18;;;;;;;4.07;3.45;;;;;;;;;;5064134;28;20032;-76
2023/07/14 11:13:51;;;;;;;5.55;3.28;;;;;;;;;;5063467;28;21198;-78
2023/07/14 11:16:21;;;;;;;5.15;3.50;;;;;;;;;;5064400;28;20047;-77
2023/07/14 11:18:58;;;;;;;7.07;3.38;;;;;;;;;;5063456;28;20017;-76
2023/07/14 11:21:39;;;;;;;8.45;2.85;;;;;;;;;;5061764;28;21188;-76
2023/07/14 11:24:13;;;;;;;4.85;2.72;;;;;;;;;;5062468;28;20120;-77
2023/07/14 11:27:00;;;;;;;3.38;3.08;;;;;;;;;;5062667;28;20447;-77
2023/07/14 11:29:38;;;;;;;4.50;3.38;;;;;;;;;;5071463;28;20037;-77
2023/07/14 11:32:04;;;;;;;4.20;3.08;;;;;;;;;;5061795;28;20443;-76
2023/07/14 11:34:35;;;;;;;3.47;3.10;;;;;;;;;;5062365;28;20032;-77
2023/07/14 11:37:06;;;;;;;4.65;3.25;;;;;;;;;;5063040;28;20115;-78
2023/07/14 11:39:44;;;;;;;4.53;3.22;;;;;;;;;;5063497;28;20074;-79
2023/07/14 11:42:19;;;;;;;5.75;3.38;;;;;;;;;;5064099;28;20028;-77
2023/07/14 11:44:45;;;;;;;6.75;4.60;;;;;;;;;;5062935;28;20436;-77
2023/07/14 11:47:23;;;;;;;8.13;4.13;;;;;;;;;;5063833;28;20016;-79
2023/07/14 11:49:52;;;;;;;8.25;4.97;;;;;;;;;;5063370;28;20317;-79
2023/07/14 11:52:26;;;;;;;6.63;4.50;;;;;;;;;;5063382;28;20040;-78
2023/07/14 11:54:51;;;;;;;5.03;4.63;;;;;;;;;;5063735;28;20021;-79
2023/07/14 11:57:18;;;;;;;6.25;4.03;;;;;;;;;;5062016;28;20028;-76
2023/07/14 11:59:58;;;;;;;4.32;3.72;;;;;;;;;;5063600;28;20112;-77
2023/07/14 12:02:38;;;;;;;5.65;4.95;;;;;;;;;;5062922;28;20301;-79
2023/07/14 12:05:13;;;;;;;7.32;4.70;;;;;;;;;;5062271;28;20029;-78
2023/07/14 12:07:58;;;;;;;5.72;5.15;;;;;;;;;;5063080;28;20052;-78
2023/07/14 12:10:43;;;;;;;7.72;5.28;;;;;;;;;;5064091;28;20024;-76
2023/07/14 12:13:18;;;;;;;5.72;5.10;;;;;;;;;;5061149;28;20037;-78
2023/07/14 12:15:44;;;;;;;5.65;5.05;;;;;;;;;;5063030;28;20090;-78
2023/07/14 12:18:22;;;;;;;5.85;5.15;;;;;;;;;;5061663;28;20044;-76
2023/07/14 12:20:48;;;;;;;7.03;5.60;;;;;;;;;;5062186;28;20059;-76
2023/07/14 12:23:16;;;;;;;9.85;6.15;;;;;;;;;;5062926;28;20067;-78
2023/07/14 12:25:43;;;;;;;7.10;6.18;;;;;;;;;;5061511;28;20024;-77
2023/07/14 12:28:14;;;;;;;6.60;5.87;;;;;;;;;;5062744;28;20108;-76
2023/07/14 12:30:45;;;;;;;11.82;5.78;;;;;;;;;;5061352;28;20074;-77
2023/07/14 12:33:13;;;;;;;7.65;6.28;;;;;;;;;;5051758;28;20071;-75
2023/07/14 12:35:39;;;;;;;7.87;6.73;;;;;;;;;;5060439;28;20040;-76
2023/07/14 12:38:08;;;;;;;8.18;7.35;;;;;;;;;;5061004;28;20024;-76
2023/07/14 12:40:34;;;;;;;9.00;6.47;;;;;;;;;;5061561;28;20042;-78
2023/07/14 12:43:00;;;;;;;10.32;8.55;;;;;;;;;;5061925;28;20099;-78
2023/07/14 12:45:25;;;;;;;11.25;8.02;;;;;;;;;;5061804;28;20067;-76
2023/07/14 12:47:54;;;;;;;9.23;8.25;;;;;;;;;;5062640;28;20020;-76
2023/07/14 12:50:21;;;;;;;11.15;7.22;;;;;;;;;;5060219;28;20016;-77
2023/07/14 12:52:47;;;;;;;8.02;7.07;;;;;;;;;;5062575;28;20072;-76
2023/07/14 12:55:14;;;;;;;8.30;6.60;;;;;;;;;;5062951;28;20177;-80
2023/07/14 12:57:39;;;;;;;7.57;6.28;;;;;;;;;;5062627;28;20111;-78
2023/07/14 13:00:25;;;;;;;7.13;6.43;;;;;;;;;;5062145;28;20103;-77
2023/07/14 13:02:52;;;;;;;8.13;6.15;;;;;;;;;;5062472;28;20041;-77
2023/07/14 13:05:18;;;;;;;6.97;6.03;;;;;;;;;;5062840;28;20344;-77
2023/07/14 13:07:48;;;;;;;7.20;5.72;;;;;;;;;;5060601;28;20147;-76
2023/07/14 13:10:19;;;;;;;8.35;6.47;;;;;;;;;;5061986;28;20039;-77
2023/07/14 13:12:44;;;;;;;7.70;6.32;;;;;;;;;;5061360;28;20062;-78
2023/07/14 13:15:14;;;;;;;7.43;6.63;;;;;;;;;;5061224;28;20742;-77
2023/07/14 13:17:40;;;;;;;9.07;6.15;;;;;;;;;;5060476;28;20112;-77
2023/07/14 13:20:09;;;;;;;8.13;6.78;;;;;;;;;;5058764;28;20130;-77
2023/07/14 13:22:37;;;;;;;8.65;7.10;;;;;;;;;;5061269;28;20111;-76
2023/07/14 13:25:04;;;;;;;9.45;6.72;;;;;;;;;;5060145;28;20472;-75
2023/07/14 13:27:30;;;;;;;7.25;6.22;;;;;;;;;;5059172;28;20025;-77
2023/07/14 13:29:56;;;;;;;9.60;7.63;;;;;;;;;;5058074;28;20032;-75
2023/07/14 13:32:23;;;;;;;6.93;6.30;;;;;;;;;;5059973;28;20113;-76
2023/07/14 13:34:50;;;;;;;8.70;6.78;;;;;;;;;;5057647;28;20028;-76
2023/07/14 13:37:15;;;;;;;8.05;7.05;;;;;;;;;;5061445;28;20363;-77
2023/07/14 13:39:42;;;;;;;6.60;6.00;;;;;;;;;;5055123;28;20062;-78
2023/07/14 13:42:26;;;;;;;11.20;6.30;;;;;;;;;;5054111;28;20120;-77
2023/07/14 13:44:52;;;;;;;7.90;6.15;;;;;;;;;;5059238;28;20052;-78
2023/07/14 13:47:25;;;;;;;7.05;5.60;;;;;;;;;;5058531;28;20024;-77
2023/07/14 13:49:52;;;;;;;6.78;6.13;;;;;;;;;;5060755;28;20056;-76
2023/07/14 13:52:18;;;;;;;5.65;5.13;;;;;;;;;;5061425;28;20036;-79
2023/07/14 13:54:45;;;;;;;6.18;5.57;;;;;;;;;;5059225;28;20051;-76
2023/07/14 13:57:11;;;;;;;6.05;5.30;;;;;;;;;;5061200;28;20020;-77
2023/07/14 13:59:38;;;;;;;7.57;5.13;;;;;;;;;;5060661;28;20383;-76
2023/07/14 14:02:09;;;;;;;7.00;5.30;;;;;;;;;;5058040;28;20113;-77
2023/07/14 14:04:34;;;;;;;7.78;5.85;;;;;;;;;;5059605;28;20356;-76
2023/07/14 14:06:59;;;;;;;7.28;6.07;;;;;;;;;;5061231;28;20033;-77
2023/07/14 14:09:25;;;;;;;6.25;5.30;;;;;;;;;;5061508;28;20430;-77
2023/07/14 14:11:50;;;;;;;6.00;4.88;;;;;;;;;;5061498;28;20519;-76
2023/07/14 14:14:16;;;;;;;7.10;5.18;;;;;;;;;;5060735;28;20111;-76
2023/07/14 14:16:42;;;;;;;8.10;5.55;;;;;;;;;;5048707;28;20025;-77
2023/07/14 14:19:10;;;;;;;5.55;4.88;;;;;;;;;;5058481;28;20024;-76
2023/07/14 14:21:35;;;;;;;4.70;4.30;;;;;;;;;;5061618;28;20102;-77
2023/07/14 14:24:01;;;;;;;6.32;4.95;;;;;;;;;;5061547;28;20032;-78
2023/07/14 14:26:26;;;;;;;6.10;5.50;;;;;;;;;;5060022;28;20021;-76
2023/07/14 14:28:52;;;;;;;6.78;4.55;;;;;;;;;;5060642;28;20025;-75
2023/07/14 14:31:17;;;;;;;6.30;4.38;;;;;;;;;;5056913;28;20035;-75
2023/07/14 14:33:42;;;;;;;5.72;4.43;;;;;;;;;;5059869;28;20676;-75
2023/07/14 14:36:09;;;;;;;4.65;4.25;;;;;;;;;;5057512;28;20032;-76
2023/07/14 14:38:34;;;;;;;6.45;4.57;;;;;;;;;;5059495;28;20314;-77